Time;durP1;ratioP1;P1;durP2;ratioP2;P2;SDS_P1;SDS_P2;PMS_P1;PMS_P2;Temp;Humidity;BMP_temperature;BMP_pressure;BME280_temperature;BME280_humidity;BME280_pressure;Samples;Min_cycle;Max_cycle;Signal;HPM_P1;HPM_P2
2022/12/22 03:26:53;;;;;;;0.60;0.60;;;;;;;;;;4887953;29;20439;-76
2022/12/22 03:29:27;;;;;;;0.60;0.60;;;;;;;;;;4893899;29;21040;-77
2022/12/22 03:31:58;;;;;;;0.60;0.60;;;;;;;;;;4895439;29;20601;-76
2022/12/22 03:34:29;;;;;;;0.60;0.60;;;;;;;;;;4893505;29;20452;-77
2022/12/22 03:36:58;;;;;;;0.60;0.50;;;;;;;;;;4881661;29;20827;-76
2022/12/22 03:39:32;;;;;;;0.60;0.60;;;;;;;;;;4894254;29;20952;-76
2022/12/22 03:47:39;;;;;;;0.60;0.50;;;;;;;;;;4886767;29;20478;-76
2022/12/22 03:50:13;;;;;;;1.73;0.93;;;;;;;;;;4894503;29;20506;-75
2022/12/22 03:52:49;;;;;;;0.60;0.50;;;;;;;;;;4880248;29;20962;-76
2022/12/22 03:55:21;;;;;;;0.60;0.60;;;;;;;;;;4887090;29;20449;-76
2022/12/22 03:57:52;;;;;;;0.60;0.60;;;;;;;;;;4888253;29;20506;-75
2022/12/22 04:00:23;;;;;;;0.60;0.60;;;;;;;;;;4892808;29;20982;-76
2022/12/22 04:02:49;;;;;;;0.60;0.50;;;;;;;;;;4885367;29;20501;-76
2022/12/22 04:05:18;;;;;;;0.60;0.60;;;;;;;;;;4889087;29;20475;-75
2022/12/22 04:07:44;;;;;;;0.60;0.60;;;;;;;;;;4885922;29;20494;-76
2022/12/22 04:12:56;;;;;;;0.60;0.60;;;;;;;;;;4893617;29;20435;-75
2022/12/22 04:15:24;;;;;;;0.60;0.60;;;;;;;;;;4895277;29;20464;-76
2022/12/22 04:17:51;;;;;;;0.60;0.60;;;;;;;;;;4885863;29;20577;-75
2022/12/22 04:20:21;;;;;;;0.97;0.90;;;;;;;;;;4895718;29;20965;-76
2022/12/22 04:22:47;;;;;;;0.60;0.60;;;;;;;;;;4894494;29;20929;-75
2022/12/22 04:25:14;;;;;;;0.60;0.50;;;;;;;;;;4881002;29;20542;-75
2022/12/22 04:27:41;;;;;;;0.60;0.60;;;;;;;;;;4889837;29;20869;-76
2022/12/22 04:30:09;;;;;;;0.60;0.60;;;;;;;;;;4889456;29;20440;-75
2022/12/22 04:32:35;;;;;;;0.60;0.60;;;;;;;;;;4890935;29;20479;-76
2022/12/22 04:35:02;;;;;;;0.60;0.50;;;;;;;;;;4879234;29;20444;-75
2022/12/22 04:37:30;;;;;;;0.60;0.60;;;;;;;;;;4886127;29;20554;-76
2022/12/22 04:39:57;;;;;;;0.60;0.50;;;;;;;;;;4883212;29;20810;-75
2022/12/22 04:42:24;;;;;;;0.60;0.53;;;;;;;;;;4891703;29;20479;-76
2022/12/22 04:44:50;;;;;;;0.60;0.60;;;;;;;;;;4891849;29;21141;-76
2022/12/22 04:47:17;;;;;;;0.60;0.60;;;;;;;;;;4882304;29;20834;-75
2022/12/22 04:49:44;;;;;;;0.70;0.63;;;;;;;;;;4884911;29;20455;-76
2022/12/22 04:52:11;;;;;;;0.60;0.60;;;;;;;;;;4895020;29;20445;-76
2022/12/22 04:54:40;;;;;;;0.60;0.50;;;;;;;;;;4886126;29;20454;-76
2022/12/22 04:57:06;;;;;;;0.60;0.60;;;;;;;;;;4886888;29;20978;-76
2022/12/22 04:59:33;;;;;;;0.60;0.50;;;;;;;;;;4890465;29;20992;-75
2022/12/22 05:02:00;;;;;;;0.60;0.57;;;;;;;;;;4879086;29;20511;-75
2022/12/22 05:04:27;;;;;;;0.60;0.50;;;;;;;;;;4891028;29;20456;-76
2022/12/22 05:06:54;;;;;;;0.60;0.60;;;;;;;;;;4882373;29;20483;-75
2022/12/22 05:09:20;;;;;;;0.60;0.60;;;;;;;;;;4893325;29;20446;-75
2022/12/22 05:11:48;;;;;;;0.60;0.60;;;;;;;;;;4885966;29;20463;-76
2022/12/22 05:14:15;;;;;;;0.60;0.60;;;;;;;;;;4887045;29;20980;-75
2022/12/22 05:16:42;;;;;;;0.60;0.60;;;;;;;;;;4886775;29;20911;-77
2022/12/22 05:19:09;;;;;;;0.60;0.60;;;;;;;;;;4889992;29;20505;-75
2022/12/22 05:21:35;;;;;;;0.60;0.60;;;;;;;;;;4894012;29;20820;-74
2022/12/22 05:24:02;;;;;;;0.60;0.60;;;;;;;;;;4886340;29;21066;-75
2022/12/22 05:26:29;;;;;;;0.60;0.50;;;;;;;;;;4883626;29;20525;-76
2022/12/22 05:28:58;;;;;;;0.60;0.60;;;;;;;;;;4888747;29;20535;-76
2022/12/22 05:31:25;;;;;;;0.60;0.60;;;;;;;;;;4892782;29;20453;-76
2022/12/22 05:33:52;;;;;;;0.70;0.70;;;;;;;;;;4892308;29;20591;-76
2022/12/22 05:36:19;;;;;;;0.60;0.60;;;;;;;;;;4886480;29;20454;-74
2022/12/22 05:38:45;;;;;;;0.60;0.60;;;;;;;;;;4890716;29;20454;-76
2022/12/22 05:41:12;;;;;;;0.60;0.60;;;;;;;;;;4892560;29;20990;-76
2022/12/22 05:43:39;;;;;;;0.60;0.50;;;;;;;;;;4893381;29;20503;-75
2022/12/22 05:46:09;;;;;;;0.60;0.60;;;;;;;;;;4893649;29;20449;-75
2022/12/22 05:48:37;;;;;;;0.60;0.60;;;;;;;;;;4891988;29;20838;-75
2022/12/22 05:51:05;;;;;;;1.63;1.53;;;;;;;;;;4887644;29;21200;-75
2022/12/22 05:53:32;;;;;;;0.60;0.60;;;;;;;;;;4886209;29;20449;-75
2022/12/22 05:56:00;;;;;;;0.60;0.60;;;;;;;;;;4892578;29;20515;-75
2022/12/22 05:58:29;;;;;;;0.60;0.60;;;;;;;;;;4894406;29;20981;-75
2022/12/22 06:00:58;;;;;;;0.70;0.60;;;;;;;;;;4892824;29;20516;-74
2022/12/22 06:03:27;;;;;;;0.70;0.70;;;;;;;;;;4876882;29;21040;-75
2022/12/22 06:05:54;;;;;;;0.60;0.57;;;;;;;;;;4889535;29;20449;-75
2022/12/22 06:08:21;;;;;;;0.60;0.60;;;;;;;;;;4880836;29;20842;-74
2022/12/22 06:10:48;;;;;;;0.60;0.60;;;;;;;;;;4888556;29;20510;-74
2022/12/22 06:13:15;;;;;;;0.60;0.50;;;;;;;;;;4878251;29;20528;-74
2022/12/22 06:15:42;;;;;;;0.70;0.70;;;;;;;;;;4886133;29;20468;-74
2022/12/22 06:18:09;;;;;;;0.60;0.60;;;;;;;;;;4884897;29;20938;-74
2022/12/22 06:20:37;;;;;;;0.60;0.60;;;;;;;;;;4896412;29;20447;-74
2022/12/22 06:23:04;;;;;;;0.60;0.60;;;;;;;;;;4884283;29;20445;-75
2022/12/22 06:25:31;;;;;;;0.60;0.60;;;;;;;;;;4888647;29;20558;-75
2022/12/22 06:27:59;;;;;;;0.60;0.60;;;;;;;;;;4881338;29;20474;-75
2022/12/22 06:30:27;;;;;;;0.60;0.60;;;;;;;;;;4894769;29;20989;-75
2022/12/22 06:33:00;;;;;;;0.70;0.70;;;;;;;;;;4892564;29;20486;-75
2022/12/22 06:35:28;;;;;;;0.60;0.60;;;;;;;;;;4894668;29;20468;-75
2022/12/22 06:37:56;;;;;;;0.60;0.60;;;;;;;;;;4884196;29;20511;-75
2022/12/22 06:40:23;;;;;;;0.67;0.67;;;;;;;;;;4897788;29;20505;-75
2022/12/22 06:43:07;;;;;;;1.97;1.83;;;;;;;;;;4894635;29;20945;-73
2022/12/22 06:45:37;;;;;;;0.60;0.60;;;;;;;;;;4894437;29;20465;-74
2022/12/22 06:48:05;;;;;;;0.60;0.60;;;;;;;;;;4887634;29;20544;-73
2022/12/22 06:50:32;;;;;;;0.70;0.70;;;;;;;;;;4893445;29;20536;-75
2022/12/22 06:53:00;;;;;;;0.60;0.50;;;;;;;;;;4897321;29;20799;-75
2022/12/22 06:55:28;;;;;;;0.60;0.60;;;;;;;;;;4892114;29;20459;-73
2022/12/22 06:57:56;;;;;;;0.70;0.70;;;;;;;;;;4888187;29;20467;-74
2022/12/22 07:00:23;;;;;;;0.60;0.57;;;;;;;;;;4896908;29;20815;-74
2022/12/22 07:02:52;;;;;;;0.60;0.60;;;;;;;;;;4893993;29;20475;-74
2022/12/22 07:05:20;;;;;;;0.60;0.60;;;;;;;;;;4890834;29;20530;-73
2022/12/22 07:07:47;;;;;;;1.80;1.20;;;;;;;;;;4896458;29;20455;-73
2022/12/22 07:10:16;;;;;;;0.70;0.70;;;;;;;;;;4894857;29;21386;-73
2022/12/22 07:12:43;;;;;;;0.60;0.60;;;;;;;;;;4896976;29;20883;-73
2022/12/22 07:15:10;;;;;;;0.60;0.60;;;;;;;;;;4880015;29;20473;-74
2022/12/22 07:17:37;;;;;;;0.80;0.80;;;;;;;;;;4896738;29;20955;-75
2022/12/22 07:20:06;;;;;;;0.70;0.70;;;;;;;;;;4883240;29;20456;-75
2022/12/22 07:22:33;;;;;;;7.80;2.60;;;;;;;;;;4897539;29;20464;-74
2022/12/22 07:25:00;;;;;;;0.60;0.60;;;;;;;;;;4891829;29;20516;-74
2022/12/22 07:27:30;;;;;;;0.60;0.50;;;;;;;;;;4886302;29;20527;-74
2022/12/22 07:29:57;;;;;;;0.60;0.60;;;;;;;;;;4883386;29;20467;-74
2022/12/22 07:32:23;;;;;;;1.60;1.50;;;;;;;;;;4890689;29;20479;-74
2022/12/22 07:34:52;;;;;;;1.00;1.00;;;;;;;;;;4898084;29;20490;-73
2022/12/22 07:37:24;;;;;;;0.60;0.60;;;;;;;;;;4892468;29;20470;-72
2022/12/22 07:39:51;;;;;;;0.67;0.67;;;;;;;;;;4895104;29;20462;-74
2022/12/22 07:45:05;;;;;;;0.60;0.60;;;;;;;;;;4890248;29;20458;-72
2022/12/22 07:47:32;;;;;;;1.47;1.37;;;;;;;;;;4885078;29;20460;-73
2022/12/22 07:52:47;;;;;;;0.70;0.70;;;;;;;;;;4892881;29;20474;-72
2022/12/22 07:55:14;;;;;;;0.60;0.50;;;;;;;;;;4891076;29;20886;-73
2022/12/22 07:57:41;;;;;;;0.60;0.50;;;;;;;;;;4884280;29;20558;-72
2022/12/22 08:00:10;;;;;;;0.70;0.70;;;;;;;;;;4895450;29;20467;-72
2022/12/22 08:02:37;;;;;;;0.60;0.53;;;;;;;;;;4884464;29;20481;-73
2022/12/22 08:05:05;;;;;;;0.60;0.60;;;;;;;;;;4886898;29;20450;-73
2022/12/22 08:07:32;;;;;;;0.60;0.60;;;;;;;;;;4890942;29;20728;-73
2022/12/22 08:09:59;;;;;;;0.60;0.50;;;;;;;;;;4890836;29;20948;-73
2022/12/22 08:12:28;;;;;;;0.80;0.80;;;;;;;;;;4882000;29;20448;-72
2022/12/22 08:14:55;;;;;;;0.60;0.60;;;;;;;;;;4893172;29;21226;-74
2022/12/22 08:17:24;;;;;;;1.00;1.00;;;;;;;;;;4881037;29;20483;-74
2022/12/22 08:19:51;;;;;;;0.60;0.60;;;;;;;;;;4884005;29;20441;-73
2022/12/22 08:22:18;;;;;;;0.80;0.80;;;;;;;;;;4891540;29;20472;-73
2022/12/22 08:24:44;;;;;;;0.60;0.60;;;;;;;;;;4892798;29;20457;-74
2022/12/22 08:27:13;;;;;;;0.80;0.80;;;;;;;;;;4891846;29;20459;-73
2022/12/22 08:29:44;;;;;;;0.60;0.60;;;;;;;;;;4894044;29;20501;-73
2022/12/22 08:32:12;;;;;;;0.60;0.60;;;;;;;;;;4882329;29;20449;-73
2022/12/22 08:34:41;;;;;;;0.80;0.77;;;;;;;;;;4890424;29;20497;-74
2022/12/22 08:37:10;;;;;;;0.60;0.60;;;;;;;;;;4902541;29;20547;-74
2022/12/22 08:39:38;;;;;;;0.60;0.60;;;;;;;;;;4885920;29;20529;-73
2022/12/22 08:42:06;;;;;;;2.07;1.53;;;;;;;;;;4887838;29;20509;-74
2022/12/22 08:44:35;;;;;;;0.60;0.60;;;;;;;;;;4891108;29;20490;-72
2022/12/22 08:47:01;;;;;;;0.60;0.60;;;;;;;;;;4883107;29;20546;-73
2022/12/22 08:49:52;;;;;;;0.70;0.70;;;;;;;;;;4889138;29;20538;-74
2022/12/22 08:52:19;;;;;;;0.60;0.60;;;;;;;;;;4889528;29;20799;-74
2022/12/22 08:54:47;;;;;;;1.40;0.97;;;;;;;;;;4896830;29;20529;-73
2022/12/22 08:57:13;;;;;;;0.60;0.60;;;;;;;;;;4883865;29;20471;-75
2022/12/22 08:59:40;;;;;;;0.60;0.60;;;;;;;;;;4885840;29;20559;-73
2022/12/22 09:02:07;;;;;;;0.60;0.50;;;;;;;;;;4893052;29;20549;-72
2022/12/22 09:04:35;;;;;;;0.60;0.50;;;;;;;;;;4887305;29;20453;-73
2022/12/22 09:07:04;;;;;;;1.47;0.93;;;;;;;;;;4886939;29;20449;-73
2022/12/22 09:09:31;;;;;;;0.60;0.60;;;;;;;;;;4871272;29;20437;-71
2022/12/22 09:11:59;;;;;;;1.70;1.00;;;;;;;;;;4891120;29;20792;-73
2022/12/22 09:14:26;;;;;;;0.60;0.60;;;;;;;;;;4888627;29;20455;-74
2022/12/22 09:16:53;;;;;;;0.67;0.67;;;;;;;;;;4876208;29;20808;-73
2022/12/22 09:19:20;;;;;;;0.60;0.60;;;;;;;;;;4888358;29;20496;-74
2022/12/22 09:21:47;;;;;;;0.63;0.63;;;;;;;;;;4892294;29;20799;-72
2022/12/22 09:24:16;;;;;;;1.20;1.10;;;;;;;;;;4889924;29;20987;-72
2022/12/22 09:26:42;;;;;;;1.23;1.13;;;;;;;;;;4890274;29;20512;-74
2022/12/22 09:29:10;;;;;;;0.60;0.60;;;;;;;;;;4876906;29;20435;-75
2022/12/22 09:38:53;;;;;;;0.90;0.90;;;;;;;;;;4885581;29;20972;-74
2022/12/22 09:41:24;;;;;;;0.60;0.60;;;;;;;;;;4889946;29;20537;-73
2022/12/22 09:43:50;;;;;;;0.70;0.70;;;;;;;;;;4901459;29;20463;-74
2022/12/22 09:46:19;;;;;;;0.60;0.50;;;;;;;;;;4886343;29;20462;-74
2022/12/22 09:48:46;;;;;;;0.60;0.60;;;;;;;;;;4882675;29;20830;-74
2022/12/22 09:51:14;;;;;;;0.60;0.60;;;;;;;;;;4895530;29;20533;-73
2022/12/22 09:53:51;;;;;;;1.30;1.20;;;;;;;;;;4892558;29;20463;-73
2022/12/22 09:56:26;;;;;;;0.70;0.70;;;;;;;;;;4887833;29;20455;-73
2022/12/22 09:58:53;;;;;;;2.30;1.53;;;;;;;;;;4882459;29;20694;-74
2022/12/22 10:01:29;;;;;;;0.90;0.90;;;;;;;;;;4895050;29;20454;-73
2022/12/22 10:04:00;;;;;;;0.70;0.70;;;;;;;;;;4893407;29;20483;-74
2022/12/22 10:06:31;;;;;;;0.60;0.60;;;;;;;;;;4887918;29;20502;-73
2022/12/22 10:09:01;;;;;;;0.60;0.60;;;;;;;;;;4894569;29;20454;-73
2022/12/22 10:11:33;;;;;;;0.60;0.60;;;;;;;;;;4896401;29;20449;-74
2022/12/22 10:14:01;;;;;;;0.70;0.70;;;;;;;;;;4890877;29;20860;-73
2022/12/22 10:16:28;;;;;;;0.60;0.60;;;;;;;;;;4885684;29;20453;-73
2022/12/22 10:18:57;;;;;;;0.70;0.70;;;;;;;;;;4893422;29;20490;-74
2022/12/22 10:21:25;;;;;;;0.60;0.60;;;;;;;;;;4887447;29;20449;-74
2022/12/22 10:23:51;;;;;;;0.60;0.60;;;;;;;;;;4888074;29;20908;-73
2022/12/22 10:26:20;;;;;;;0.70;0.70;;;;;;;;;;4885862;29;21023;-74
2022/12/22 10:29:00;;;;;;;0.60;0.60;;;;;;;;;;4886349;29;20528;-73
2022/12/22 10:31:27;;;;;;;0.60;0.60;;;;;;;;;;4888556;29;20982;-74
2022/12/22 10:33:55;;;;;;;0.60;0.60;;;;;;;;;;4889051;29;20506;-73
2022/12/22 10:36:24;;;;;;;0.60;0.60;;;;;;;;;;4881221;29;20961;-75
2022/12/22 10:38:56;;;;;;;0.60;0.60;;;;;;;;;;4881187;29;20534;-76
2022/12/22 10:41:24;;;;;;;0.70;0.70;;;;;;;;;;4886726;29;20807;-75
2022/12/22 10:43:52;;;;;;;0.60;0.60;;;;;;;;;;4872979;29;20488;-75
2022/12/22 10:46:29;;;;;;;2.70;2.50;;;;;;;;;;4881064;29;20814;-76
2022/12/22 10:49:06;;;;;;;0.60;0.60;;;;;;;;;;4906407;29;21030;-75
2022/12/22 10:51:33;;;;;;;0.63;0.63;;;;;;;;;;4891096;29;20490;-75
2022/12/22 10:54:00;;;;;;;0.70;0.70;;;;;;;;;;4896064;29;21044;-75
2022/12/22 10:56:28;;;;;;;0.60;0.60;;;;;;;;;;4892265;29;20458;-75
2022/12/22 10:59:04;;;;;;;0.70;0.70;;;;;;;;;;4888184;29;20488;-77
2022/12/22 11:01:34;;;;;;;0.60;0.60;;;;;;;;;;4894007;29;20459;-74
2022/12/22 11:04:14;;;;;;;0.60;0.50;;;;;;;;;;4895940;29;20485;-75
2022/12/22 11:06:42;;;;;;;0.60;0.60;;;;;;;;;;4874106;29;20442;-75
2022/12/22 11:09:10;;;;;;;0.70;0.70;;;;;;;;;;4896896;29;20806;-75
2022/12/22 11:12:02;;;;;;;0.60;0.50;;;;;;;;;;4891595;29;20474;-75
2022/12/22 11:14:32;;;;;;;0.60;0.60;;;;;;;;;;4905899;29;20770;-75
2022/12/22 11:17:05;;;;;;;0.80;0.80;;;;;;;;;;4884828;29;20436;-74
2022/12/22 11:19:46;;;;;;;0.90;0.90;;;;;;;;;;4887626;29;20577;-75
2022/12/22 11:22:19;;;;;;;0.70;0.70;;;;;;;;;;4904774;29;20546;-75
2022/12/22 11:24:53;;;;;;;0.60;0.60;;;;;;;;;;4882641;29;20459;-75
2022/12/22 11:27:26;;;;;;;1.00;1.00;;;;;;;;;;4902679;29;21218;-77
2022/12/22 11:30:01;;;;;;;0.80;0.80;;;;;;;;;;4886252;29;20997;-76
2022/12/22 11:32:39;;;;;;;0.60;0.60;;;;;;;;;;4889085;29;20481;-76
2022/12/22 11:35:10;;;;;;;0.80;0.80;;;;;;;;;;4894967;29;20445;-75
2022/12/22 11:37:41;;;;;;;0.70;0.70;;;;;;;;;;4878541;29;20446;-76
2022/12/22 11:40:13;;;;;;;0.60;0.60;;;;;;;;;;4898640;29;20478;-74
2022/12/22 11:42:51;;;;;;;1.03;0.93;;;;;;;;;;4885628;29;20551;-75
2022/12/22 11:45:28;;;;;;;0.60;0.60;;;;;;;;;;4883977;29;20570;-75
2022/12/22 11:48:01;;;;;;;0.70;0.70;;;;;;;;;;4885051;29;20471;-76
2022/12/22 11:50:34;;;;;;;0.70;0.70;;;;;;;;;;4905984;29;20556;-75
2022/12/22 11:53:36;;;;;;;0.60;0.60;;;;;;;;;;4880274;29;20454;-74
2022/12/22 11:56:11;;;;;;;0.70;0.70;;;;;;;;;;4880741;29;20488;-76
2022/12/22 11:58:46;;;;;;;0.60;0.60;;;;;;;;;;4890778;29;20486;-76
2022/12/22 12:01:23;;;;;;;0.60;0.60;;;;;;;;;;4898451;29;20553;-76
2022/12/22 12:04:09;;;;;;;0.60;0.60;;;;;;;;;;4879691;29;20615;-75
2022/12/22 12:06:55;;;;;;;0.60;0.60;;;;;;;;;;4860403;29;20454;-76
2022/12/22 12:09:31;;;;;;;0.70;0.70;;;;;;;;;;4898660;29;20449;-75
2022/12/22 12:12:02;;;;;;;0.70;0.70;;;;;;;;;;4883032;29;20464;-74
2022/12/22 12:14:32;;;;;;;0.67;0.67;;;;;;;;;;4898100;29;20488;-76
2022/12/22 12:17:01;;;;;;;0.70;0.70;;;;;;;;;;4893538;29;20440;-76
2022/12/22 12:19:49;;;;;;;0.60;0.60;;;;;;;;;;4888415;29;20476;-76
2022/12/22 12:22:22;;;;;;;0.70;0.70;;;;;;;;;;4893615;29;20886;-76
2022/12/22 12:24:58;;;;;;;0.90;0.90;;;;;;;;;;4891350;29;20856;-76
2022/12/22 12:27:33;;;;;;;1.40;1.30;;;;;;;;;;4885738;29;20470;-77
2022/12/22 12:30:01;;;;;;;0.70;0.70;;;;;;;;;;4893600;29;20460;-76
2022/12/22 12:32:51;;;;;;;0.60;0.60;;;;;;;;;;4892877;29;20521;-76
2022/12/22 12:35:30;;;;;;;0.70;0.70;;;;;;;;;;4888853;29;20463;-77
2022/12/22 12:38:00;;;;;;;0.70;0.70;;;;;;;;;;4901926;29;20522;-78
2022/12/22 12:40:33;;;;;;;0.70;0.70;;;;;;;;;;4902802;29;20463;-74
2022/12/22 12:43:01;;;;;;;1.03;1.03;;;;;;;;;;4907152;29;20456;-76
2022/12/22 12:45:33;;;;;;;0.60;0.60;;;;;;;;;;4893599;29;20460;-78
2022/12/22 12:48:19;;;;;;;1.27;1.17;;;;;;;;;;4894252;29;20480;-74
2022/12/22 12:50:48;;;;;;;1.47;1.37;;;;;;;;;;4892460;29;20979;-77
2022/12/22 12:53:16;;;;;;;0.70;0.70;;;;;;;;;;4892406;29;20451;-77
2022/12/22 12:55:55;;;;;;;0.70;0.70;;;;;;;;;;4884895;29;20544;-77
2022/12/22 12:58:36;;;;;;;0.67;0.63;;;;;;;;;;4898650;29;20461;-77
2022/12/22 13:01:06;;;;;;;0.70;0.70;;;;;;;;;;4889677;29;20471;-77
2022/12/22 13:03:38;;;;;;;0.90;0.90;;;;;;;;;;4896823;29;20531;-76
2022/12/22 13:06:46;;;;;;;1.07;1.07;;;;;;;;;;4888888;29;20545;-77
2022/12/22 13:09:18;;;;;;;0.60;0.60;;;;;;;;;;4872407;29;20464;-76
2022/12/22 13:12:19;;;;;;;0.60;0.60;;;;;;;;;;4878299;29;20479;-76
2022/12/22 13:14:55;;;;;;;0.70;0.67;;;;;;;;;;4893147;29;20510;-76
2022/12/22 13:17:32;;;;;;;0.60;0.60;;;;;;;;;;4891476;29;21077;-76
2022/12/22 13:19:59;;;;;;;0.60;0.60;;;;;;;;;;4881664;29;20480;-75
2022/12/22 13:22:26;;;;;;;0.60;0.60;;;;;;;;;;4885026;29;20925;-76
2022/12/22 13:24:55;;;;;;;0.60;0.60;;;;;;;;;;4891604;29;20472;-76
2022/12/22 13:27:23;;;;;;;0.70;0.70;;;;;;;;;;4896255;29;20442;-75
2022/12/22 13:29:51;;;;;;;0.60;0.60;;;;;;;;;;4888454;29;20477;-75
2022/12/22 13:32:24;;;;;;;0.60;0.60;;;;;;;;;;4895910;29;20470;-75
2022/12/22 13:35:09;;;;;;;0.70;0.70;;;;;;;;;;4901799;29;21147;-76
2022/12/22 13:37:56;;;;;;;0.63;0.60;;;;;;;;;;4890306;29;20546;-76
2022/12/22 13:40:24;;;;;;;0.67;0.67;;;;;;;;;;4891246;29;20473;-76
2022/12/22 13:42:53;;;;;;;0.70;0.70;;;;;;;;;;4900696;29;20447;-76
2022/12/22 13:45:29;;;;;;;0.73;0.73;;;;;;;;;;4897418;29;20526;-76
2022/12/22 13:47:59;;;;;;;0.70;0.70;;;;;;;;;;4896385;29;20458;-76
2022/12/22 13:50:29;;;;;;;0.70;0.70;;;;;;;;;;4878968;29;21154;-77
2022/12/22 13:52:56;;;;;;;0.70;0.70;;;;;;;;;;4895339;29;20457;-76
2022/12/22 13:55:24;;;;;;;0.60;0.60;;;;;;;;;;4894349;29;20445;-75
2022/12/22 13:57:53;;;;;;;0.70;0.70;;;;;;;;;;4894594;29;20482;-76
2022/12/22 14:00:25;;;;;;;0.80;0.80;;;;;;;;;;4888663;29;20513;-76
2022/12/22 14:02:52;;;;;;;0.70;0.70;;;;;;;;;;4888393;29;20877;-76
2022/12/22 14:05:21;;;;;;;0.60;0.60;;;;;;;;;;4886556;29;20508;-76
2022/12/22 14:07:58;;;;;;;0.60;0.60;;;;;;;;;;4896314;29;22086;-76
2022/12/22 14:10:27;;;;;;;0.73;0.73;;;;;;;;;;4894175;29;20476;-75
2022/12/22 14:12:54;;;;;;;0.60;0.60;;;;;;;;;;4893635;29;20564;-76
2022/12/22 14:15:20;;;;;;;0.63;0.63;;;;;;;;;;4895938;29;20524;-76
2022/12/22 14:17:48;;;;;;;0.60;0.60;;;;;;;;;;4887108;29;20617;-76
2022/12/22 14:20:21;;;;;;;0.60;0.60;;;;;;;;;;4893696;29;20501;-75
2022/12/22 14:22:51;;;;;;;0.60;0.60;;;;;;;;;;4905826;29;20530;-76
2022/12/22 14:25:20;;;;;;;0.80;0.80;;;;;;;;;;4890218;29;20566;-76
2022/12/22 14:27:49;;;;;;;0.60;0.60;;;;;;;;;;4896225;29;20842;-76
2022/12/22 14:30:17;;;;;;;0.60;0.60;;;;;;;;;;4894721;29;20501;-77
2022/12/22 14:32:45;;;;;;;0.77;0.77;;;;;;;;;;4891521;29;20467;-76
2022/12/22 14:35:25;;;;;;;0.70;0.70;;;;;;;;;;4886236;29;20471;-76
2022/12/22 14:38:06;;;;;;;0.90;0.90;;;;;;;;;;4887483;29;20857;-76
2022/12/22 14:40:34;;;;;;;0.80;0.77;;;;;;;;;;4894852;29;20470;-76
2022/12/22 14:43:02;;;;;;;0.60;0.60;;;;;;;;;;4892026;29;20441;-77
2022/12/22 14:45:29;;;;;;;0.60;0.60;;;;;;;;;;4888121;29;20872;-76
2022/12/22 14:47:56;;;;;;;0.70;0.70;;;;;;;;;;4894271;29;20551;-77
2022/12/22 14:50:24;;;;;;;0.70;0.70;;;;;;;;;;4894272;29;20461;-76
2022/12/22 14:52:52;;;;;;;0.60;0.60;;;;;;;;;;4897561;29;20874;-75
2022/12/22 14:55:28;;;;;;;0.70;0.70;;;;;;;;;;4886137;29;20475;-76
2022/12/22 14:57:57;;;;;;;0.70;0.70;;;;;;;;;;4879161;29;21028;-76
2022/12/22 15:00:29;;;;;;;0.70;0.70;;;;;;;;;;4876708;29;20470;-76
2022/12/22 15:02:57;;;;;;;0.67;0.67;;;;;;;;;;4880098;29;21034;-76
2022/12/22 15:05:27;;;;;;;1.43;0.97;;;;;;;;;;4895804;29;20464;-76
2022/12/22 15:07:54;;;;;;;0.70;0.70;;;;;;;;;;4896818;29;20443;-76
2022/12/22 15:10:37;;;;;;;2.20;1.80;;;;;;;;;;4895587;29;20483;-77
2022/12/22 15:13:04;;;;;;;0.80;0.80;;;;;;;;;;4901757;29;21013;-76
2022/12/22 15:15:32;;;;;;;0.70;0.70;;;;;;;;;;4885674;29;20455;-76
2022/12/22 15:17:59;;;;;;;0.60;0.60;;;;;;;;;;4893986;29;20511;-77
2022/12/22 15:20:27;;;;;;;0.70;0.70;;;;;;;;;;4876168;29;20476;-76
2022/12/22 15:23:01;;;;;;;0.60;0.60;;;;;;;;;;4891534;29;20471;-75
2022/12/22 15:25:28;;;;;;;0.60;0.60;;;;;;;;;;4880864;29;20493;-76
2022/12/22 15:27:56;;;;;;;0.60;0.60;;;;;;;;;;4888407;29;20446;-76
2022/12/22 15:30:24;;;;;;;0.60;0.60;;;;;;;;;;4900581;29;20539;-75
2022/12/22 15:32:56;;;;;;;0.60;0.60;;;;;;;;;;4898395;29;20486;-76
2022/12/22 15:35:26;;;;;;;0.60;0.60;;;;;;;;;;4884159;29;20987;-76
2022/12/22 15:37:54;;;;;;;0.60;0.60;;;;;;;;;;4879322;29;20456;-76
2022/12/22 15:40:21;;;;;;;0.60;0.60;;;;;;;;;;4880001;29;20570;-76
2022/12/22 15:42:52;;;;;;;0.80;0.80;;;;;;;;;;4894256;29;20463;-75
2022/12/22 15:45:21;;;;;;;0.70;0.70;;;;;;;;;;4893567;29;20546;-76
2022/12/22 15:47:49;;;;;;;0.60;0.60;;;;;;;;;;4886868;29;20478;-76
2022/12/22 15:50:18;;;;;;;0.70;0.70;;;;;;;;;;4873942;29;20913;-76
2022/12/22 15:52:47;;;;;;;0.70;0.70;;;;;;;;;;4886227;29;20874;-75
2022/12/22 15:55:15;;;;;;;0.60;0.60;;;;;;;;;;4888041;29;20945;-75
2022/12/22 15:57:43;;;;;;;0.60;0.60;;;;;;;;;;4890962;29;20500;-76
2022/12/22 16:00:11;;;;;;;0.60;0.60;;;;;;;;;;4891718;29;20464;-76
2022/12/22 16:02:40;;;;;;;0.63;0.63;;;;;;;;;;4891262;29;20491;-75
2022/12/22 16:05:10;;;;;;;0.60;0.60;;;;;;;;;;4889390;29;20912;-76
2022/12/22 16:07:37;;;;;;;0.60;0.60;;;;;;;;;;4892704;29;20450;-76
2022/12/22 16:10:05;;;;;;;0.80;0.80;;;;;;;;;;4891838;29;20810;-75
2022/12/22 16:12:35;;;;;;;0.60;0.60;;;;;;;;;;4893569;29;20463;-76
2022/12/22 16:15:02;;;;;;;0.60;0.60;;;;;;;;;;4890082;29;20538;-76
2022/12/22 16:17:33;;;;;;;4.10;1.73;;;;;;;;;;4884266;29;20985;-76
2022/12/22 16:20:02;;;;;;;0.70;0.70;;;;;;;;;;4887913;29;20492;-75
2022/12/22 16:22:31;;;;;;;2.90;2.70;;;;;;;;;;4893260;29;20461;-75
2022/12/22 16:24:58;;;;;;;0.60;0.60;;;;;;;;;;4893273;29;20457;-76
2022/12/22 16:27:25;;;;;;;0.70;0.70;;;;;;;;;;4888907;29;20453;-75
2022/12/22 16:29:53;;;;;;;0.60;0.60;;;;;;;;;;4886737;29;20489;-76
2022/12/22 16:32:22;;;;;;;0.63;0.63;;;;;;;;;;4894617;29;20485;-76
2022/12/22 16:34:49;;;;;;;0.60;0.60;;;;;;;;;;4900134;29;20460;-75
2022/12/22 16:37:18;;;;;;;0.70;0.60;;;;;;;;;;4897464;29;20525;-75
2022/12/22 16:39:45;;;;;;;0.60;0.60;;;;;;;;;;4889221;29;20539;-76
2022/12/22 16:42:13;;;;;;;0.60;0.60;;;;;;;;;;4884188;29;20532;-75
2022/12/22 16:44:57;;;;;;;3.13;1.00;;;;;;;;;;4897684;29;20462;-75
2022/12/22 16:47:26;;;;;;;0.60;0.60;;;;;;;;;;4900070;29;20506;-75
2022/12/22 16:49:54;;;;;;;0.60;0.60;;;;;;;;;;4891445;29;20441;-76
2022/12/22 16:52:24;;;;;;;0.70;0.70;;;;;;;;;;4885747;29;20463;-74
2022/12/22 16:54:51;;;;;;;0.60;0.60;;;;;;;;;;4875317;29;20463;-75
2022/12/22 16:57:19;;;;;;;0.70;0.70;;;;;;;;;;4894062;29;20478;-75
2022/12/22 16:59:46;;;;;;;0.60;0.60;;;;;;;;;;4890933;29;20466;-75
2022/12/22 17:02:17;;;;;;;0.70;0.70;;;;;;;;;;4895150;29;21066;-76
2022/12/22 17:04:45;;;;;;;0.60;0.50;;;;;;;;;;4880270;29;20870;-75
2022/12/22 17:07:11;;;;;;;0.60;0.60;;;;;;;;;;4893559;29;20811;-77
2022/12/22 17:09:42;;;;;;;0.70;0.70;;;;;;;;;;4895810;29;20473;-75
2022/12/22 17:12:09;;;;;;;0.60;0.60;;;;;;;;;;4878747;29;20945;-76
2022/12/22 17:14:37;;;;;;;0.60;0.50;;;;;;;;;;4891064;29;20467;-75
2022/12/22 17:17:04;;;;;;;0.60;0.60;;;;;;;;;;4877013;29;20520;-75
2022/12/22 17:19:30;;;;;;;0.60;0.60;;;;;;;;;;4892019;29;20538;-76
2022/12/22 17:21:58;;;;;;;0.80;0.80;;;;;;;;;;4894839;29;20984;-74
2022/12/22 17:24:26;;;;;;;0.60;0.60;;;;;;;;;;4891447;29;20460;-75
2022/12/22 17:26:57;;;;;;;0.67;0.67;;;;;;;;;;4880965;29;20452;-75
2022/12/22 17:29:24;;;;;;;1.37;1.27;;;;;;;;;;4888204;29;20451;-74
2022/12/22 17:31:55;;;;;;;0.67;0.63;;;;;;;;;;4891511;29;20447;-75
2022/12/22 17:34:22;;;;;;;0.60;0.60;;;;;;;;;;4871775;29;20553;-76
2022/12/22 17:36:49;;;;;;;0.60;0.50;;;;;;;;;;4892272;29;20546;-74
2022/12/22 17:39:18;;;;;;;0.60;0.60;;;;;;;;;;4888734;29;20459;-75
2022/12/22 17:41:45;;;;;;;0.70;0.70;;;;;;;;;;4882249;29;20482;-76
2022/12/22 17:44:24;;;;;;;0.60;0.50;;;;;;;;;;4893701;29;20542;-75
2022/12/22 17:46:51;;;;;;;0.60;0.60;;;;;;;;;;4887120;29;20909;-74
2022/12/22 17:49:20;;;;;;;0.60;0.60;;;;;;;;;;4892912;29;20473;-75
2022/12/22 17:51:48;;;;;;;0.60;0.60;;;;;;;;;;4887605;29;20437;-74
2022/12/22 17:54:19;;;;;;;0.60;0.60;;;;;;;;;;4888774;29;20804;-75
2022/12/22 17:56:46;;;;;;;0.80;0.80;;;;;;;;;;4887869;29;20446;-75
2022/12/22 17:59:13;;;;;;;0.60;0.60;;;;;;;;;;4891874;29;20451;-75
2022/12/22 18:01:42;;;;;;;0.60;0.60;;;;;;;;;;4892991;29;20478;-75
2022/12/22 18:04:08;;;;;;;0.60;0.60;;;;;;;;;;4889655;29;20482;-75
2022/12/22 18:06:38;;;;;;;0.67;0.67;;;;;;;;;;4887287;29;20439;-76
2022/12/22 18:09:06;;;;;;;0.60;0.50;;;;;;;;;;4886271;29;20462;-76
2022/12/22 18:11:33;;;;;;;0.60;0.60;;;;;;;;;;4894702;29;20448;-76
2022/12/22 18:14:03;;;;;;;0.60;0.60;;;;;;;;;;4896302;29;20452;-75
2022/12/22 18:16:30;;;;;;;0.83;0.83;;;;;;;;;;4890405;29;20447;-76
2022/12/22 18:18:58;;;;;;;1.37;1.27;;;;;;;;;;4894881;29;20479;-74
2022/12/22 18:21:25;;;;;;;0.60;0.60;;;;;;;;;;4895686;29;20536;-77
2022/12/22 18:23:52;;;;;;;0.60;0.57;;;;;;;;;;4891506;29;20460;-76
2022/12/22 18:26:20;;;;;;;0.60;0.50;;;;;;;;;;4896493;29;20526;-75
2022/12/22 18:28:47;;;;;;;0.60;0.57;;;;;;;;;;4896053;29;20945;-75
2022/12/22 18:31:14;;;;;;;0.60;0.50;;;;;;;;;;4892666;29;21001;-75
2022/12/22 18:33:42;;;;;;;0.70;0.70;;;;;;;;;;4895627;29;20576;-76
2022/12/22 18:36:15;;;;;;;1.13;1.03;;;;;;;;;;4903588;29;20552;-76
2022/12/22 18:38:43;;;;;;;0.60;0.50;;;;;;;;;;4884980;29;20454;-76
2022/12/22 18:41:17;;;;;;;0.60;0.60;;;;;;;;;;4884385;29;20541;-76
2022/12/22 18:43:44;;;;;;;0.60;0.60;;;;;;;;;;4878844;29;20469;-75
2022/12/22 18:46:11;;;;;;;0.77;0.77;;;;;;;;;;4876319;29;20462;-77